Pagrindinis puslapis
METAR-TAF:

METAR-TAF

Oro uostai :

Londono Hitrou oro uostas

Londonas Heathrow, Anglija

platuma: 51-29N, ilguma: 000-27W, Aukštis: 24 m

Dabartinis oras

Ataskaita buvo paskelbta 19 minutes, ne 04:20 UTC
Vėjas 6 kt iš Vakarų
Temperatūra 2°C
Drėgmė 93%
Slėgis 1023 hPa
Matomumas 10 km arba daugiau

METAR: EGLL 180420Z AUTO 28006KT 9999 NCD 02/01 Q1023 NOSIG

Laikas: 04:39 (04:39 UTC)

Prognozė

Ataskaita buvo paskelbta 5 valandos ir 47 minutes, ne 22:52 UTC
Prognozė galioja nuo 18 metu 00 UTC su 19 metu 06 UTC
Vėjas 10 kt iš Pietvakarių
Matomumas 10 km arba daugiau
Išsisklaidę debesys ne aukštis 4000 ft
Tikimybė 30%
nuo 18 metu 04 UTC su 18 metu 09 UTC
Matomumas: 8000 m
Tapsmas
nuo 18 metu 10 UTC su 18 metu 13 UTC
Vėjas 6 kt iš Šiaurės Vakarų
Tikimybė 30%
nuo 18 metu 21 UTC su 19 metu 06 UTC
Matomumas: 8000 m

TAF: EGLL 172252Z 1800/1906 23010KT 9999 SCT040 PROB30 1804/1809 8000 BECMG 1810/1813 32006KT PROB30 1821/1906 8000

Orai ataskaitas ir orų prognozės (METAR, TAF).

turimą stotys yra geltonos ir raudonos taškus žemėlapyje.

Perkelti pele per norėdami pamatyti stoties vardą.

Tada spustelėkite, norėdami matyti oro stebėjimo ir prognozės.

Norėdami pakeisti žemėlapį: spustelėkite ant žalios mygtukų su juodo kryžiaus žemyn,; žalią mygtuką su brūkšneliu, jei norite nutolinti; arba žalių rodyklių gretimoms žemėlapius.


METAR-TAF: